sensor_id;sensor_type;location;lat;lon;timestamp;pressure;altitude;pressure_sealevel;temperature;humidity
6528;BME280;64597;42.664;23.256;2023-06-22T00:01:59;95006.09;;;19.86;57.09
6528;BME280;64597;42.664;23.256;2023-06-22T00:04:24;95008.50;;;19.88;56.69
6528;BME280;64597;42.664;23.256;2023-06-22T00:06:50;95001.59;;;19.82;56.86
6528;BME280;64597;42.664;23.256;2023-06-22T00:09:17;95000.03;;;19.76;57.09
6528;BME280;64597;42.664;23.256;2023-06-22T00:11:43;95009.75;;;19.66;58.33
6528;BME280;64597;42.664;23.256;2023-06-22T00:14:08;95005.25;;;19.57;58.48
6528;BME280;64597;42.664;23.256;2023-06-22T00:16:33;94988.84;;;19.35;58.79
6528;BME280;64597;42.664;23.256;2023-06-22T00:18:59;94979.22;;;19.29;58.88
6528;BME280;64597;42.664;23.256;2023-06-22T00:21:29;94972.94;;;19.10;58.70
6528;BME280;64597;42.664;23.256;2023-06-22T00:23:56;94990.69;;;19.39;59.38
6528;BME280;64597;42.664;23.256;2023-06-22T00:26:22;94983.78;;;19.33;60.03
6528;BME280;64597;42.664;23.256;2023-06-22T00:28:48;94909.78;;;18.80;60.37
6528;BME280;64597;42.664;23.256;2023-06-22T00:31:13;94921.88;;;18.67;60.04
6528;BME280;64597;42.664;23.256;2023-06-22T00:33:39;94982.78;;;19.14;59.93
6528;BME280;64597;42.664;23.256;2023-06-22T00:36:05;94984.56;;;19.29;60.08
6528;BME280;64597;42.664;23.256;2023-06-22T00:38:33;94986.72;;;19.27;60.21
6528;BME280;64597;42.664;23.256;2023-06-22T00:40:58;94986.22;;;19.25;60.22
6528;BME280;64597;42.664;23.256;2023-06-22T00:43:24;94981.66;;;19.25;60.29
6528;BME280;64597;42.664;23.256;2023-06-22T00:45:49;94982.44;;;19.26;60.64
6528;BME280;64597;42.664;23.256;2023-06-22T00:48:15;94993.47;;;19.19;60.71
6528;BME280;64597;42.664;23.256;2023-06-22T00:50:40;94990.28;;;19.17;61.04
6528;BME280;64597;42.664;23.256;2023-06-22T00:53:07;94962.06;;;18.96;61.00
6528;BME280;64597;42.664;23.256;2023-06-22T00:55:51;94985.22;;;19.11;61.05
6528;BME280;64597;42.664;23.256;2023-06-22T00:58:18;94982.03;;;19.09;61.28
6528;BME280;64597;42.664;23.256;2023-06-22T01:00:47;94974.03;;;19.04;61.39
6528;BME280;64597;42.664;23.256;2023-06-22T01:03:13;94993.31;;;19.01;61.97
6528;BME280;64597;42.664;23.256;2023-06-22T01:05:39;94998.66;;;18.96;61.99
6528;BME280;64597;42.664;23.256;2023-06-22T01:08:27;95000.28;;;18.97;61.57
6528;BME280;64597;42.664;23.256;2023-06-22T01:11:12;95001.63;;;18.94;61.16
6528;BME280;64597;42.664;23.256;2023-06-22T01:16:19;95001.41;;;18.85;61.45
6528;BME280;64597;42.664;23.256;2023-06-22T01:18:47;95000.88;;;18.83;61.98
6528;BME280;64597;42.664;23.256;2023-06-22T01:21:18;94990.19;;;18.83;61.85
6528;BME280;64597;42.664;23.256;2023-06-22T01:26:28;94994.16;;;18.91;61.36
6528;BME280;64597;42.664;23.256;2023-06-22T01:28:57;94992.84;;;18.83;61.92
6528;BME280;64597;42.664;23.256;2023-06-22T01:31:26;94998.25;;;18.73;62.02
6528;BME280;64597;42.664;23.256;2023-06-22T01:33:57;94995.84;;;18.72;62.27
6528;BME280;64597;42.664;23.256;2023-06-22T01:36:24;94995.06;;;18.66;61.81
6528;BME280;64597;42.664;23.256;2023-06-22T01:38:52;94996.13;;;18.70;61.60
6528;BME280;64597;42.664;23.256;2023-06-22T01:41:19;95010.03;;;18.72;61.75
6528;BME280;64597;42.664;23.256;2023-06-22T01:43:45;95011.06;;;18.71;62.12
6528;BME280;64597;42.664;23.256;2023-06-22T01:46:12;95012.16;;;18.70;61.98
6528;BME280;64597;42.664;23.256;2023-06-22T01:48:38;95011.66;;;18.68;61.84
6528;BME280;64597;42.664;23.256;2023-06-22T01:51:04;94987.09;;;18.56;62.00
6528;BME280;64597;42.664;23.256;2023-06-22T01:53:30;95003.63;;;18.68;61.76
6528;BME280;64597;42.664;23.256;2023-06-22T01:55:56;95003.09;;;18.61;62.12
6528;BME280;64597;42.664;23.256;2023-06-22T01:58:26;95023.09;;;18.69;62.06
6528;BME280;64597;42.664;23.256;2023-06-22T02:01:09;95016.19;;;18.68;62.10
6528;BME280;64597;42.664;23.256;2023-06-22T02:03:38;95022.88;;;18.60;62.01
6528;BME280;64597;42.664;23.256;2023-06-22T02:06:14;95029.81;;;18.56;62.15
6528;BME280;64597;42.664;23.256;2023-06-22T02:08:47;95034.09;;;18.57;62.33
6528;BME280;64597;42.664;23.256;2023-06-22T02:11:15;95034.13;;;18.47;62.82
6528;BME280;64597;42.664;23.256;2023-06-22T02:13:42;95024.22;;;18.43;62.76
6528;BME280;64597;42.664;23.256;2023-06-22T02:16:11;95023.69;;;18.51;62.78
6528;BME280;64597;42.664;23.256;2023-06-22T02:18:37;95013.31;;;18.44;62.95
6528;BME280;64597;42.664;23.256;2023-06-22T02:21:03;95023.69;;;18.51;63.12
6528;BME280;64597;42.664;23.256;2023-06-22T02:23:28;95016.22;;;18.53;63.12
6528;BME280;64597;42.664;23.256;2023-06-22T02:25:53;95011.44;;;18.50;63.16
6528;BME280;64597;42.664;23.256;2023-06-22T02:28:19;94991.69;;;18.31;62.44
6528;BME280;64597;42.664;23.256;2023-06-22T02:30:44;94997.56;;;18.28;62.51
6528;BME280;64597;42.664;23.256;2023-06-22T02:33:10;95016.78;;;18.40;62.56
6528;BME280;64597;42.664;23.256;2023-06-22T02:35:35;95010.06;;;18.42;62.29
6528;BME280;64597;42.664;23.256;2023-06-22T02:38:02;95017.06;;;18.33;62.72
6528;BME280;64597;42.664;23.256;2023-06-22T02:40:29;94981.59;;;18.07;62.81
6528;BME280;64597;42.664;23.256;2023-06-22T02:42:58;95016.53;;;18.26;62.81
6528;BME280;64597;42.664;23.256;2023-06-22T02:45:27;95016.00;;;18.24;63.16
6528;BME280;64597;42.664;23.256;2023-06-22T02:47:52;95008.00;;;18.24;62.89
6528;BME280;64597;42.664;23.256;2023-06-22T02:50:18;95012.00;;;18.27;63.05
6528;BME280;64597;42.664;23.256;2023-06-22T02:52:43;95007.75;;;18.21;63.17
6528;BME280;64597;42.664;23.256;2023-06-22T02:55:09;95008.25;;;18.18;63.29
6528;BME280;64597;42.664;23.256;2023-06-22T02:57:34;95013.34;;;18.19;63.11
6528;BME280;64597;42.664;23.256;2023-06-22T03:00:02;95014.13;;;18.20;63.44
6528;BME280;64597;42.664;23.256;2023-06-22T03:02:31;95016.28;;;18.23;63.64
6528;BME280;64597;42.664;23.256;2023-06-22T03:04:57;94987.75;;;18.13;63.41
6528;BME280;64597;42.664;23.256;2023-06-22T03:07:23;95011.19;;;18.26;63.29
6528;BME280;64597;42.664;23.256;2023-06-22T03:09:48;95015.72;;;18.26;63.64
6528;BME280;64597;42.664;23.256;2023-06-22T03:12:14;95025.06;;;18.28;64.11
6528;BME280;64597;42.664;23.256;2023-06-22T03:14:39;95031.22;;;18.29;64.16
6528;BME280;64597;42.664;23.256;2023-06-22T03:17:05;95033.59;;;18.30;65.18
6528;BME280;64597;42.664;23.256;2023-06-22T03:19:31;95039.50;;;18.22;65.00
6528;BME280;64597;42.664;23.256;2023-06-22T03:22:00;95050.72;;;18.19;64.94
6528;BME280;64597;42.664;23.256;2023-06-22T03:24:25;95064.59;;;18.21;65.26
6528;BME280;64597;42.664;23.256;2023-06-22T03:26:53;95043.22;;;18.26;64.65
6528;BME280;64597;42.664;23.256;2023-06-22T03:29:20;95059.25;;;18.26;64.64
6528;BME280;64597;42.664;23.256;2023-06-22T03:31:45;95056.28;;;18.28;65.00
6528;BME280;64597;42.664;23.256;2023-06-22T03:34:10;95041.63;;;18.30;64.64
6528;BME280;64597;42.664;23.256;2023-06-22T03:36:36;95052.28;;;18.35;65.36
6528;BME280;64597;42.664;23.256;2023-06-22T03:39:01;95059.78;;;18.33;65.72
6528;BME280;64597;42.664;23.256;2023-06-22T03:41:27;95065.44;;;19.11;76.88
6528;BME280;64597;42.664;23.256;2023-06-22T03:43:52;95055.66;;;20.12;73.67
6528;BME280;64597;42.664;23.256;2023-06-22T03:46:18;95048.59;;;20.79;71.12
6528;BME280;64597;42.664;23.256;2023-06-22T03:48:45;95058.56;;;21.39;66.56
6528;BME280;64597;42.664;23.256;2023-06-22T03:51:10;95064.25;;;21.75;63.78
6528;BME280;64597;42.664;23.256;2023-06-22T03:53:35;95063.16;;;22.27;59.80
6528;BME280;64597;42.664;23.256;2023-06-22T03:56:01;95071.38;;;22.81;58.40
6528;BME280;64597;42.664;23.256;2023-06-22T03:58:26;95067.84;;;23.21;57.43
6528;BME280;64597;42.664;23.256;2023-06-22T04:00:53;95049.50;;;23.37;57.26
6528;BME280;64597;42.664;23.256;2023-06-22T04:03:19;95061.63;;;23.61;57.41
6528;BME280;64597;42.664;23.256;2023-06-22T04:05:44;95053.81;;;23.73;56.24
6528;BME280;64597;42.664;23.256;2023-06-22T04:08:10;95054.78;;;23.77;53.94
6528;BME280;64597;42.664;23.256;2023-06-22T04:10:36;95055.00;;;23.81;53.70
6528;BME280;64597;42.664;23.256;2023-06-22T04:13:01;95045.00;;;23.82;52.60
6528;BME280;64597;42.664;23.256;2023-06-22T04:15:27;95042.19;;;23.87;52.72
6528;BME280;64597;42.664;23.256;2023-06-22T04:17:55;95035.91;;;23.91;51.86
6528;BME280;64597;42.664;23.256;2023-06-22T04:20:21;95035.00;;;23.96;51.53
6528;BME280;64597;42.664;23.256;2023-06-22T04:22:47;95031.66;;;23.99;51.50
6528;BME280;64597;42.664;23.256;2023-06-22T04:25:12;95035.97;;;24.00;51.24
6528;BME280;64597;42.664;23.256;2023-06-22T04:27:38;95018.59;;;24.06;51.26
6528;BME280;64597;42.664;23.256;2023-06-22T04:30:07;95026.69;;;24.06;51.71
6528;BME280;64597;42.664;23.256;2023-06-22T04:32:36;95036.34;;;24.07;51.19
6528;BME280;64597;42.664;23.256;2023-06-22T04:35:03;95037.16;;;24.07;51.24
6528;BME280;64597;42.664;23.256;2023-06-22T04:37:30;95034.16;;;24.09;51.14
6528;BME280;64597;42.664;23.256;2023-06-22T04:39:56;95020.19;;;24.07;50.96
6528;BME280;64597;42.664;23.256;2023-06-22T04:42:22;95037.47;;;24.06;52.90
6528;BME280;64597;42.664;23.256;2023-06-22T04:44:47;95035.34;;;24.16;55.92
6528;BME280;64597;42.664;23.256;2023-06-22T04:47:13;95033.13;;;24.18;56.82
6528;BME280;64597;42.664;23.256;2023-06-22T04:49:38;95040.63;;;24.30;56.02
6528;BME280;64597;42.664;23.256;2023-06-22T04:52:07;95051.16;;;24.40;55.28
6528;BME280;64597;42.664;23.256;2023-06-22T04:54:35;95049.75;;;24.42;53.53
6528;BME280;64597;42.664;23.256;2023-06-22T04:57:02;95052.50;;;24.51;54.36
6528;BME280;64597;42.664;23.256;2023-06-22T04:59:30;95056.66;;;24.57;53.37
6528;BME280;64597;42.664;23.256;2023-06-22T05:04:22;95033.34;;;24.61;52.64
6528;BME280;64597;42.664;23.256;2023-06-22T05:06:51;95037.50;;;24.67;52.09
6528;BME280;64597;42.664;23.256;2023-06-22T05:09:17;95039.03;;;24.60;52.11
6528;BME280;64597;42.664;23.256;2023-06-22T05:11:46;95044.16;;;24.61;51.65
6528;BME280;64597;42.664;23.256;2023-06-22T05:14:12;95027.75;;;24.49;51.56
6528;BME280;64597;42.664;23.256;2023-06-22T05:16:38;95044.41;;;24.51;51.04
6528;BME280;64597;42.664;23.256;2023-06-22T05:19:04;95045.22;;;24.60;51.63
6528;BME280;64597;42.664;23.256;2023-06-22T05:21:30;95039.03;;;24.60;51.66
6528;BME280;64597;42.664;23.256;2023-06-22T05:23:57;95032.06;;;24.59;50.99
6528;BME280;64597;42.664;23.256;2023-06-22T05:26:27;95046.16;;;24.55;51.77
6528;BME280;64597;42.664;23.256;2023-06-22T05:28:53;95051.00;;;24.67;51.68
6528;BME280;64597;42.664;23.256;2023-06-22T05:31:19;95048.06;;;24.77;51.57
6528;BME280;64597;42.664;23.256;2023-06-22T05:33:45;95060.91;;;24.80;51.11
6528;BME280;64597;42.664;23.256;2023-06-22T05:36:12;95060.28;;;24.83;51.17
6528;BME280;64597;42.664;23.256;2023-06-22T05:38:39;95063.47;;;24.85;50.56
6528;BME280;64597;42.664;23.256;2023-06-22T05:41:05;95062.66;;;24.85;51.46
6528;BME280;64597;42.664;23.256;2023-06-22T05:43:30;95041.28;;;24.66;51.12
6528;BME280;64597;42.664;23.256;2023-06-22T05:45:56;95059.66;;;24.86;50.66
6528;BME280;64597;42.664;23.256;2023-06-22T05:48:22;95075.16;;;25.11;50.80
6528;BME280;64597;42.664;23.256;2023-06-22T05:50:47;95075.66;;;25.22;50.45
6528;BME280;64597;42.664;23.256;2023-06-22T05:53:13;95077.25;;;25.23;50.19
6528;BME280;64597;42.664;23.256;2023-06-22T05:55:38;95086.56;;;25.48;49.57
6528;BME280;64597;42.664;23.256;2023-06-22T05:58:04;95087.22;;;25.62;49.52
6528;BME280;64597;42.664;23.256;2023-06-22T06:00:30;95082.78;;;25.83;49.01
6528;BME280;64597;42.664;23.256;2023-06-22T06:02:55;95079.63;;;25.98;48.34
6528;BME280;64597;42.664;23.256;2023-06-22T06:05:21;95081.06;;;26.04;48.02
6528;BME280;64597;42.664;23.256;2023-06-22T06:07:48;95080.44;;;26.16;47.91
6528;BME280;64597;42.664;23.256;2023-06-22T06:10:13;95077.75;;;26.24;47.41
6528;BME280;64597;42.664;23.256;2023-06-22T06:12:39;95067.84;;;26.45;47.34
6528;BME280;64597;42.664;23.256;2023-06-22T06:15:05;95062.53;;;26.66;46.51
6528;BME280;64597;42.664;23.256;2023-06-22T06:17:31;95064.38;;;27.00;45.85
6528;BME280;64597;42.664;23.256;2023-06-22T06:19:56;95054.88;;;27.23;45.44
6528;BME280;64597;42.664;23.256;2023-06-22T06:22:23;95057.31;;;27.45;44.76
6528;BME280;64597;42.664;23.256;2023-06-22T06:24:49;95058.28;;;27.69;44.37
6528;BME280;64597;42.664;23.256;2023-06-22T06:27:15;95047.38;;;27.78;44.13
6528;BME280;64597;42.664;23.256;2023-06-22T06:29:43;95055.66;;;28.02;42.95
6528;BME280;64597;42.664;23.256;2023-06-22T06:32:11;95063.16;;;28.17;43.01
6528;BME280;64597;42.664;23.256;2023-06-22T06:34:36;95054.34;;;28.41;42.67
6528;BME280;64597;42.664;23.256;2023-06-22T06:37:02;95046.97;;;28.62;41.81
6528;BME280;64597;42.664;23.256;2023-06-22T06:39:27;95050.84;;;28.85;41.04
6528;BME280;64597;42.664;23.256;2023-06-22T06:41:53;95040.16;;;29.01;40.75
6528;BME280;64597;42.664;23.256;2023-06-22T06:44:18;95042.31;;;29.19;40.57
6528;BME280;64597;42.664;23.256;2023-06-22T06:46:44;95043.34;;;29.39;40.61
6528;BME280;64597;42.664;23.256;2023-06-22T06:49:09;95039.00;;;29.50;40.40
6528;BME280;64597;42.664;23.256;2023-06-22T06:51:35;95039.56;;;29.68;39.81
6528;BME280;64597;42.664;23.256;2023-06-22T06:54:01;95033.78;;;29.81;39.92
6528;BME280;64597;42.664;23.256;2023-06-22T06:56:26;95028.47;;;30.13;39.02
6528;BME280;64597;42.664;23.256;2023-06-22T06:58:52;95034.91;;;30.48;38.99
6528;BME280;64597;42.664;23.256;2023-06-22T07:01:17;95033.53;;;30.54;37.98
6528;BME280;64597;42.664;23.256;2023-06-22T07:03:44;95029.47;;;30.48;39.40
6528;BME280;64597;42.664;23.256;2023-06-22T07:06:10;95023.66;;;30.93;38.50
6528;BME280;64597;42.664;23.256;2023-06-22T07:08:35;95033.31;;;31.06;37.34
6528;BME280;64597;42.664;23.256;2023-06-22T07:11:02;95031.47;;;31.25;37.17
6528;BME280;64597;42.664;23.256;2023-06-22T07:13:27;95017.56;;;31.30;36.92
6528;BME280;64597;42.664;23.256;2023-06-22T07:15:53;95023.00;;;31.61;36.96
6528;BME280;64597;42.664;23.256;2023-06-22T07:18:18;95030.69;;;31.75;36.62
6528;BME280;64597;42.664;23.256;2023-06-22T07:20:43;95022.94;;;31.93;36.82
6528;BME280;64597;42.664;23.256;2023-06-22T07:23:09;95022.81;;;32.24;37.47
6528;BME280;64597;42.664;23.256;2023-06-22T07:25:35;95030.53;;;32.41;35.43
6528;BME280;64597;42.664;23.256;2023-06-22T07:28:05;95032.72;;;32.32;36.48
6528;BME280;64597;42.664;23.256;2023-06-22T07:30:32;94996.91;;;32.18;36.81
6528;BME280;64597;42.664;23.256;2023-06-22T07:32:59;95021.81;;;32.74;34.38
6528;BME280;64597;42.664;23.256;2023-06-22T07:35:29;95030.50;;;32.57;34.85
6528;BME280;64597;42.664;23.256;2023-06-22T07:37:55;95039.09;;;32.81;35.19
6528;BME280;64597;42.664;23.256;2023-06-22T07:40:21;95035.44;;;32.93;35.00
6528;BME280;64597;42.664;23.256;2023-06-22T07:42:47;95039.66;;;32.90;36.00
6528;BME280;64597;42.664;23.256;2023-06-22T07:45:17;95037.78;;;33.13;35.73
6528;BME280;64597;42.664;23.256;2023-06-22T07:47:43;95031.94;;;33.41;35.58
6528;BME280;64597;42.664;23.256;2023-06-22T07:50:09;95039.50;;;33.74;34.75
6528;BME280;64597;42.664;23.256;2023-06-22T07:52:35;95039.81;;;33.95;34.65
6528;BME280;64597;42.664;23.256;2023-06-22T07:55:01;95042.72;;;33.53;35.06
6528;BME280;64597;42.664;23.256;2023-06-22T07:57:27;95039.56;;;33.28;35.02
6528;BME280;64597;42.664;23.256;2023-06-22T08:00:02;95027.09;;;33.31;35.58
6528;BME280;64597;42.664;23.256;2023-06-22T08:02:29;95006.72;;;33.02;35.84
6528;BME280;64597;42.664;23.256;2023-06-22T08:04:55;95036.56;;;32.92;36.71
6528;BME280;64597;42.664;23.256;2023-06-22T08:07:20;95033.88;;;32.50;36.62
6528;BME280;64597;42.664;23.256;2023-06-22T08:09:48;95032.13;;;32.61;35.87
6528;BME280;64597;42.664;23.256;2023-06-22T08:12:15;95012.19;;;33.02;35.76
6528;BME280;64597;42.664;23.256;2023-06-22T08:14:42;95021.47;;;33.20;35.64
6528;BME280;64597;42.664;23.256;2023-06-22T08:17:07;95016.97;;;32.86;37.11
6528;BME280;64597;42.664;23.256;2023-06-22T08:19:32;95016.75;;;32.53;36.66
6528;BME280;64597;42.664;23.256;2023-06-22T08:21:58;94996.56;;;32.80;36.87
6528;BME280;64597;42.664;23.256;2023-06-22T08:24:23;95023.38;;;33.43;35.97
6528;BME280;64597;42.664;23.256;2023-06-22T08:26:51;95011.22;;;33.63;34.68
6528;BME280;64597;42.664;23.256;2023-06-22T08:29:17;95010.00;;;33.90;33.94
6528;BME280;64597;42.664;23.256;2023-06-22T08:31:42;95001.66;;;34.06;33.36
6528;BME280;64597;42.664;23.256;2023-06-22T08:34:08;94989.59;;;33.84;33.18
6528;BME280;64597;42.664;23.256;2023-06-22T08:36:33;95007.66;;;33.88;34.12
6528;BME280;64597;42.664;23.256;2023-06-22T08:39:08;95004.19;;;34.21;33.92
6528;BME280;64597;42.664;23.256;2023-06-22T08:41:34;95008.31;;;34.41;33.17
6528;BME280;64597;42.664;23.256;2023-06-22T08:43:59;95007.78;;;34.62;32.57
6528;BME280;64597;42.664;23.256;2023-06-22T08:46:24;95011.63;;;34.54;32.80
6528;BME280;64597;42.664;23.256;2023-06-22T08:48:56;95015.47;;;34.49;32.36
6528;BME280;64597;42.664;23.256;2023-06-22T08:51:22;95010.50;;;34.58;31.86
6528;BME280;64597;42.664;23.256;2023-06-22T08:53:48;95009.41;;;34.66;30.79
6528;BME280;64597;42.664;23.256;2023-06-22T08:56:13;95003.16;;;34.69;31.17
6528;BME280;64597;42.664;23.256;2023-06-22T08:58:39;94999.09;;;34.53;29.89
6528;BME280;64597;42.664;23.256;2023-06-22T09:01:04;94986.56;;;34.52;29.33
6528;BME280;64597;42.664;23.256;2023-06-22T09:03:29;94981.41;;;34.83;30.21
6528;BME280;64597;42.664;23.256;2023-06-22T09:05:55;94985.63;;;35.18;29.74
6528;BME280;64597;42.664;23.256;2023-06-22T09:08:21;94976.38;;;35.40;29.33
6528;BME280;64597;42.664;23.256;2023-06-22T09:10:46;94985.16;;;35.59;29.47
6528;BME280;64597;42.664;23.256;2023-06-22T09:13:12;94987.66;;;35.86;29.53
6528;BME280;64597;42.664;23.256;2023-06-22T09:15:38;94991.16;;;35.83;29.01
6528;BME280;64597;42.664;23.256;2023-06-22T09:18:03;94933.28;;;35.44;28.67
6528;BME280;64597;42.664;23.256;2023-06-22T09:20:29;94983.88;;;36.11;26.99
6528;BME280;64597;42.664;23.256;2023-06-22T09:22:54;94987.38;;;36.01;27.62
6528;BME280;64597;42.664;23.256;2023-06-22T09:25:20;94994.88;;;36.11;28.72
6528;BME280;64597;42.664;23.256;2023-06-22T09:27:47;94987.47;;;36.29;28.47
6528;BME280;64597;42.664;23.256;2023-06-22T09:30:12;94969.00;;;36.19;28.67
6528;BME280;64597;42.664;23.256;2023-06-22T09:32:38;94978.19;;;35.76;28.54
6528;BME280;64597;42.664;23.256;2023-06-22T09:35:04;94997.81;;;35.78;28.98
6528;BME280;64597;42.664;23.256;2023-06-22T09:37:35;94988.53;;;36.00;27.47
6528;BME280;64597;42.664;23.256;2023-06-22T09:40:01;94994.91;;;36.18;28.04
6528;BME280;64597;42.664;23.256;2023-06-22T09:42:32;95001.69;;;36.46;27.62
6528;BME280;64597;42.664;23.256;2023-06-22T09:44:57;94978.91;;;36.42;27.98
6528;BME280;64597;42.664;23.256;2023-06-22T09:47:23;94990.31;;;36.47;25.36
6528;BME280;64597;42.664;23.256;2023-06-22T09:49:48;94988.38;;;36.51;26.66
6528;BME280;64597;42.664;23.256;2023-06-22T09:52:14;94976.97;;;36.49;26.79
6528;BME280;64597;42.664;23.256;2023-06-22T09:54:40;94987.59;;;36.65;26.79
6528;BME280;64597;42.664;23.256;2023-06-22T09:57:05;94982.53;;;36.84;26.43
6528;BME280;64597;42.664;23.256;2023-06-22T09:59:31;94971.91;;;36.86;26.26
6528;BME280;64597;42.664;23.256;2023-06-22T10:01:56;94975.50;;;36.94;26.04
6528;BME280;64597;42.664;23.256;2023-06-22T10:04:21;94984.94;;;37.14;26.47
6528;BME280;64597;42.664;23.256;2023-06-22T10:06:47;94975.53;;;37.33;25.77
6528;BME280;64597;42.664;23.256;2023-06-22T10:09:12;94963.72;;;37.46;25.85
6528;BME280;64597;42.664;23.256;2023-06-22T10:11:38;94970.34;;;37.66;24.78
6528;BME280;64597;42.664;23.256;2023-06-22T10:14:03;94979.41;;;37.63;23.44
6528;BME280;64597;42.664;23.256;2023-06-22T10:16:32;94970.78;;;37.40;23.21
6528;BME280;64597;42.664;23.256;2023-06-22T10:18:58;94969.25;;;37.39;23.24
6528;BME280;64597;42.664;23.256;2023-06-22T10:21:24;94963.31;;;36.95;22.72
6528;BME280;64597;42.664;23.256;2023-06-22T10:23:49;94960.56;;;37.09;24.62
6528;BME280;64597;42.664;23.256;2023-06-22T10:26:15;94961.34;;;37.20;24.07
6528;BME280;64597;42.664;23.256;2023-06-22T10:28:40;94963.72;;;37.39;24.94
6528;BME280;64597;42.664;23.256;2023-06-22T10:31:06;94966.06;;;37.44;23.63
6528;BME280;64597;42.664;23.256;2023-06-22T10:33:31;94955.03;;;37.23;26.10
6528;BME280;64597;42.664;23.256;2023-06-22T10:35:57;94945.22;;;37.15;25.54
6528;BME280;64597;42.664;23.256;2023-06-22T10:38:22;94938.16;;;36.93;25.69
6528;BME280;64597;42.664;23.256;2023-06-22T10:40:48;94950.75;;;36.94;25.35
6528;BME280;64597;42.664;23.256;2023-06-22T10:43:15;94949.94;;;37.00;25.56
6528;BME280;64597;42.664;23.256;2023-06-22T10:45:40;94946.03;;;37.08;25.41
6528;BME280;64597;42.664;23.256;2023-06-22T10:48:06;94951.16;;;37.21;24.64
6528;BME280;64597;42.664;23.256;2023-06-22T10:50:32;94932.28;;;37.05;24.68
6528;BME280;64597;42.664;23.256;2023-06-22T10:52:57;94951.94;;;37.14;24.65
6528;BME280;64597;42.664;23.256;2023-06-22T10:55:23;94930.72;;;37.04;23.66
6528;BME280;64597;42.664;23.256;2023-06-22T10:57:48;94940.13;;;37.21;23.94
6528;BME280;64597;42.664;23.256;2023-06-22T11:00:15;94946.81;;;37.30;24.37
6528;BME280;64597;42.664;23.256;2023-06-22T11:02:41;94939.75;;;37.08;23.09
6528;BME280;64597;42.664;23.256;2023-06-22T11:05:07;94939.34;;;36.95;24.09
6528;BME280;64597;42.664;23.256;2023-06-22T11:07:33;94936.16;;;36.62;23.53
6528;BME280;64597;42.664;23.256;2023-06-22T11:09:58;94935.34;;;36.58;24.69
6528;BME280;64597;42.664;23.256;2023-06-22T11:12:24;94935.00;;;36.59;25.48
6528;BME280;64597;42.664;23.256;2023-06-22T11:14:49;94935.28;;;36.33;25.18
6528;BME280;64597;42.664;23.256;2023-06-22T11:17:18;94935.72;;;36.38;24.47
6528;BME280;64597;42.664;23.256;2023-06-22T11:19:44;94928.69;;;36.52;23.78
6528;BME280;64597;42.664;23.256;2023-06-22T11:22:10;94931.81;;;36.43;24.51
6528;BME280;64597;42.664;23.256;2023-06-22T11:24:35;94922.34;;;36.26;24.26
6528;BME280;64597;42.664;23.256;2023-06-22T11:27:01;94923.53;;;36.39;25.04
6528;BME280;64597;42.664;23.256;2023-06-22T11:29:26;94925.97;;;36.55;25.08
6528;BME280;64597;42.664;23.256;2023-06-22T11:31:52;94921.25;;;36.66;25.06
6528;BME280;64597;42.664;23.256;2023-06-22T11:34:17;94909.84;;;36.57;25.87
6528;BME280;64597;42.664;23.256;2023-06-22T11:36:44;94914.06;;;36.16;27.19
6528;BME280;64597;42.664;23.256;2023-06-22T11:39:10;94915.50;;;35.92;27.99
6528;BME280;64597;42.664;23.256;2023-06-22T11:41:36;94895.84;;;35.73;28.33
6528;BME280;64597;42.664;23.256;2023-06-22T11:44:01;94918.19;;;35.71;28.42
6528;BME280;64597;42.664;23.256;2023-06-22T11:46:27;94913.78;;;35.49;27.43
6528;BME280;64597;42.664;23.256;2023-06-22T11:48:52;94915.22;;;35.32;29.73
6528;BME280;64597;42.664;23.256;2023-06-22T11:51:18;94921.38;;;35.19;34.12
6528;BME280;64597;42.664;23.256;2023-06-22T11:53:43;94917.19;;;34.84;35.59
6528;BME280;64597;42.664;23.256;2023-06-22T11:56:08;94915.56;;;34.36;38.13
6528;BME280;64597;42.664;23.256;2023-06-22T11:58:34;94925.00;;;34.06;38.35
6528;BME280;64597;42.664;23.256;2023-06-22T12:00:59;94928.22;;;33.81;36.64
6528;BME280;64597;42.664;23.256;2023-06-22T12:03:25;94914.94;;;33.54;35.79
6528;BME280;64597;42.664;23.256;2023-06-22T12:05:50;94921.00;;;33.40;36.21
6528;BME280;64597;42.664;23.256;2023-06-22T12:08:19;94911.38;;;33.23;38.71
6528;BME280;64597;42.664;23.256;2023-06-22T12:10:44;94928.50;;;33.20;38.66
6528;BME280;64597;42.664;23.256;2023-06-22T12:13:10;94948.50;;;32.98;40.45
6528;BME280;64597;42.664;23.256;2023-06-22T12:15:35;94942.97;;;32.72;41.74
6528;BME280;64597;42.664;23.256;2023-06-22T12:18:01;94955.63;;;32.61;40.45
6528;BME280;64597;42.664;23.256;2023-06-22T12:20:26;94957.41;;;32.50;38.33
6528;BME280;64597;42.664;23.256;2023-06-22T12:22:52;94956.19;;;32.28;37.93
6528;BME280;64597;42.664;23.256;2023-06-22T12:25:19;94963.25;;;32.10;37.93
6528;BME280;64597;42.664;23.256;2023-06-22T12:27:44;94951.75;;;31.82;38.86
6528;BME280;64597;42.664;23.256;2023-06-22T12:30:10;94964.47;;;31.75;40.35
6528;BME280;64597;42.664;23.256;2023-06-22T12:32:35;94931.34;;;31.22;40.92
6528;BME280;64597;42.664;23.256;2023-06-22T12:35:01;94986.38;;;31.12;43.19
6528;BME280;64597;42.664;23.256;2023-06-22T12:37:26;94971.44;;;30.75;43.47
6528;BME280;64597;42.664;23.256;2023-06-22T12:39:53;94959.50;;;30.21;43.99
6528;BME280;64597;42.664;23.256;2023-06-22T12:42:19;94971.72;;;29.59;45.11
6528;BME280;64597;42.664;23.256;2023-06-22T12:44:46;94963.63;;;28.75;49.96
6528;BME280;64597;42.664;23.256;2023-06-22T12:47:11;94939.00;;;28.11;50.48
6528;BME280;64597;42.664;23.256;2023-06-22T12:49:38;94959.03;;;27.77;51.48
6528;BME280;64597;42.664;23.256;2023-06-22T12:52:08;94961.88;;;27.60;48.19
6528;BME280;64597;42.664;23.256;2023-06-22T12:54:35;94975.25;;;27.65;48.81
6528;BME280;64597;42.664;23.256;2023-06-22T12:57:01;94980.47;;;27.70;48.17
6528;BME280;64597;42.664;23.256;2023-06-22T12:59:27;94975.72;;;27.67;47.64
6528;BME280;64597;42.664;23.256;2023-06-22T13:01:52;94985.91;;;27.70;48.87
6528;BME280;64597;42.664;23.256;2023-06-22T13:04:18;94974.50;;;27.56;49.47